sensor_id;sensor_type;location;lat;lon;timestamp;P1;durP1;ratioP1;P2;durP2;ratioP2
66979;SDS011;54048;51.468;-2.572;2023-01-28T13:12:52;13.40;;;4.88;;
66979;SDS011;54048;51.468;-2.572;2023-01-28T13:15:18;12.75;;;5.60;;
66979;SDS011;54048;51.468;-2.572;2023-01-28T13:17:54;14.40;;;5.70;;
66979;SDS011;54048;51.468;-2.572;2023-01-28T13:23:00;8.98;;;5.10;;
66979;SDS011;54048;51.468;-2.572;2023-01-28T13:25:27;8.00;;;4.60;;
66979;SDS011;54048;51.468;-2.572;2023-01-28T13:27:53;12.93;;;5.90;;
66979;SDS011;54048;51.468;-2.572;2023-01-28T13:30:25;13.93;;;5.55;;
66979;SDS011;54048;51.468;-2.572;2023-01-28T13:32:58;10.60;;;5.53;;
66979;SDS011;54048;51.468;-2.572;2023-01-28T13:37:54;15.15;;;6.50;;
66979;SDS011;54048;51.468;-2.572;2023-01-28T13:40:23;11.68;;;5.35;;
66979;SDS011;54048;51.468;-2.572;2023-01-28T13:42:58;8.60;;;4.60;;
66979;SDS011;54048;51.468;-2.572;2023-01-28T13:45:28;7.50;;;4.38;;
66979;SDS011;54048;51.468;-2.572;2023-01-28T13:47:57;9.98;;;5.03;;
66979;SDS011;54048;51.468;-2.572;2023-01-28T13:50:44;8.55;;;4.15;;
66979;SDS011;54048;51.468;-2.572;2023-01-28T13:55:41;6.45;;;3.83;;
66979;SDS011;54048;51.468;-2.572;2023-01-28T13:58:24;9.20;;;4.40;;
66979;SDS011;54048;51.468;-2.572;2023-01-28T14:19:54;9.25;;;5.13;;
66979;SDS011;54048;51.468;-2.572;2023-01-28T14:22:21;16.50;;;6.00;;
66979;SDS011;54048;51.468;-2.572;2023-01-28T14:24:46;14.65;;;5.68;;
66979;SDS011;54048;51.468;-2.572;2023-01-28T14:27:23;16.10;;;5.72;;
66979;SDS011;54048;51.468;-2.572;2023-01-28T14:32:48;15.10;;;5.18;;
66979;SDS011;54048;51.468;-2.572;2023-01-28T14:35:17;8.55;;;5.43;;
66979;SDS011;54048;51.468;-2.572;2023-01-28T14:37:44;9.25;;;5.13;;
66979;SDS011;54048;51.468;-2.572;2023-01-28T14:40:13;12.23;;;6.28;;
66979;SDS011;54048;51.468;-2.572;2023-01-28T14:42:44;19.33;;;8.00;;
66979;SDS011;54048;51.468;-2.572;2023-01-28T14:45:18;12.07;;;5.82;;
66979;SDS011;54048;51.468;-2.572;2023-01-28T14:48:16;9.40;;;4.68;;
66979;SDS011;54048;51.468;-2.572;2023-01-28T14:53:39;11.95;;;5.88;;
66979;SDS011;54048;51.468;-2.572;2023-01-28T14:56:11;12.30;;;5.53;;
66979;SDS011;54048;51.468;-2.572;2023-01-28T14:59:15;15.38;;;5.88;;
66979;SDS011;54048;51.468;-2.572;2023-01-28T15:01:43;17.25;;;7.63;;
66979;SDS011;54048;51.468;-2.572;2023-01-28T15:06:54;17.83;;;8.25;;
66979;SDS011;54048;51.468;-2.572;2023-01-28T15:09:20;20.95;;;10.10;;
66979;SDS011;54048;51.468;-2.572;2023-01-28T15:11:46;21.23;;;8.40;;
66979;SDS011;54048;51.468;-2.572;2023-01-28T15:14:18;18.25;;;9.38;;
66979;SDS011;54048;51.468;-2.572;2023-01-28T15:16:48;17.70;;;8.80;;
66979;SDS011;54048;51.468;-2.572;2023-01-28T15:19:14;11.45;;;4.93;;
66979;SDS011;54048;51.468;-2.572;2023-01-28T15:21:41;9.85;;;4.75;;
66979;SDS011;54048;51.468;-2.572;2023-01-28T15:24:08;10.60;;;6.10;;
66979;SDS011;54048;51.468;-2.572;2023-01-28T15:26:36;9.27;;;4.82;;
66979;SDS011;54048;51.468;-2.572;2023-01-28T15:29:02;13.48;;;6.40;;
66979;SDS011;54048;51.468;-2.572;2023-01-28T15:31:28;11.90;;;6.18;;
66979;SDS011;54048;51.468;-2.572;2023-01-28T15:34:14;12.30;;;5.50;;
66979;SDS011;54048;51.468;-2.572;2023-01-28T15:36:41;16.45;;;8.32;;
66979;SDS011;54048;51.468;-2.572;2023-01-28T15:39:13;15.68;;;7.47;;
66979;SDS011;54048;51.468;-2.572;2023-01-28T15:41:41;13.88;;;5.38;;
66979;SDS011;54048;51.468;-2.572;2023-01-28T15:44:42;8.23;;;4.95;;
66979;SDS011;54048;51.468;-2.572;2023-01-28T15:49:40;11.23;;;5.93;;
66979;SDS011;54048;51.468;-2.572;2023-01-28T15:52:07;12.90;;;5.65;;
66979;SDS011;54048;51.468;-2.572;2023-01-28T15:54:36;7.10;;;4.78;;
66979;SDS011;54048;51.468;-2.572;2023-01-28T15:57:19;19.90;;;6.60;;
66979;SDS011;54048;51.468;-2.572;2023-01-28T15:59:46;13.25;;;5.75;;
66979;SDS011;54048;51.468;-2.572;2023-01-28T16:02:21;9.55;;;4.18;;
66979;SDS011;54048;51.468;-2.572;2023-01-28T16:04:54;8.50;;;4.65;;
66979;SDS011;54048;51.468;-2.572;2023-01-28T16:07:20;10.07;;;5.10;;
66979;SDS011;54048;51.468;-2.572;2023-01-28T16:09:49;9.77;;;4.20;;
66979;SDS011;54048;51.468;-2.572;2023-01-28T16:12:17;15.85;;;5.82;;
66979;SDS011;54048;51.468;-2.572;2023-01-28T16:14:43;10.55;;;5.53;;
66979;SDS011;54048;51.468;-2.572;2023-01-28T16:17:14;9.68;;;5.28;;
66979;SDS011;54048;51.468;-2.572;2023-01-28T16:19:42;12.30;;;5.78;;
66979;SDS011;54048;51.468;-2.572;2023-01-28T16:22:18;12.50;;;5.43;;
66979;SDS011;54048;51.468;-2.572;2023-01-28T16:24:49;9.60;;;5.57;;
66979;SDS011;54048;51.468;-2.572;2023-01-28T16:27:20;12.38;;;5.95;;
66979;SDS011;54048;51.468;-2.572;2023-01-28T16:29:49;14.00;;;5.82;;
66979;SDS011;54048;51.468;-2.572;2023-01-28T16:35:03;10.80;;;5.38;;
66979;SDS011;54048;51.468;-2.572;2023-01-28T16:37:48;20.05;;;5.97;;
66979;SDS011;54048;51.468;-2.572;2023-01-28T16:40:15;11.73;;;5.70;;
66979;SDS011;54048;51.468;-2.572;2023-01-28T16:42:42;16.08;;;7.28;;
66979;SDS011;54048;51.468;-2.572;2023-01-28T16:45:19;13.80;;;7.20;;
66979;SDS011;54048;51.468;-2.572;2023-01-28T16:47:48;14.40;;;7.50;;
66979;SDS011;54048;51.468;-2.572;2023-01-28T16:50:15;16.85;;;7.38;;
66979;SDS011;54048;51.468;-2.572;2023-01-28T16:52:41;15.77;;;7.68;;
66979;SDS011;54048;51.468;-2.572;2023-01-28T16:55:09;17.70;;;7.80;;
66979;SDS011;54048;51.468;-2.572;2023-01-28T16:57:36;15.98;;;7.05;;
66979;SDS011;54048;51.468;-2.572;2023-01-28T17:00:02;14.23;;;6.80;;
66979;SDS011;54048;51.468;-2.572;2023-01-28T17:02:28;12.65;;;6.95;;
66979;SDS011;54048;51.468;-2.572;2023-01-28T17:04:53;16.20;;;7.05;;
66979;SDS011;54048;51.468;-2.572;2023-01-28T17:07:19;12.05;;;6.70;;
66979;SDS011;54048;51.468;-2.572;2023-01-28T17:09:44;18.50;;;7.97;;
66979;SDS011;54048;51.468;-2.572;2023-01-28T17:12:09;15.82;;;7.60;;
66979;SDS011;54048;51.468;-2.572;2023-01-28T17:14:35;10.38;;;6.20;;
66979;SDS011;54048;51.468;-2.572;2023-01-28T17:17:00;12.93;;;7.60;;
66979;SDS011;54048;51.468;-2.572;2023-01-28T17:19:25;17.92;;;7.22;;
66979;SDS011;54048;51.468;-2.572;2023-01-28T17:21:51;15.93;;;7.68;;
66979;SDS011;54048;51.468;-2.572;2023-01-28T17:24:17;13.40;;;6.85;;
66979;SDS011;54048;51.468;-2.572;2023-01-28T17:26:42;10.88;;;6.10;;
66979;SDS011;54048;51.468;-2.572;2023-01-28T17:29:07;13.90;;;6.80;;
66979;SDS011;54048;51.468;-2.572;2023-01-28T17:31:33;13.85;;;6.20;;
66979;SDS011;54048;51.468;-2.572;2023-01-28T17:33:59;10.85;;;6.45;;
66979;SDS011;54048;51.468;-2.572;2023-01-28T17:36:25;14.68;;;6.85;;
66979;SDS011;54048;51.468;-2.572;2023-01-28T17:38:51;17.50;;;6.80;;
66979;SDS011;54048;51.468;-2.572;2023-01-28T17:41:16;11.00;;;6.63;;
66979;SDS011;54048;51.468;-2.572;2023-01-28T17:43:42;13.00;;;7.63;;
66979;SDS011;54048;51.468;-2.572;2023-01-28T17:46:12;13.90;;;7.35;;
66979;SDS011;54048;51.468;-2.572;2023-01-28T17:48:38;19.83;;;9.60;;
66979;SDS011;54048;51.468;-2.572;2023-01-28T17:51:04;16.70;;;9.73;;
66979;SDS011;54048;51.468;-2.572;2023-01-28T17:53:29;15.55;;;8.25;;
66979;SDS011;54048;51.468;-2.572;2023-01-28T17:55:55;13.85;;;7.45;;
66979;SDS011;54048;51.468;-2.572;2023-01-28T17:58:20;18.85;;;8.30;;
66979;SDS011;54048;51.468;-2.572;2023-01-28T18:00:46;16.52;;;8.32;;
66979;SDS011;54048;51.468;-2.572;2023-01-28T18:03:11;18.42;;;9.32;;
66979;SDS011;54048;51.468;-2.572;2023-01-28T18:05:37;18.65;;;10.48;;
66979;SDS011;54048;51.468;-2.572;2023-01-28T18:08:03;21.65;;;10.23;;
66979;SDS011;54048;51.468;-2.572;2023-01-28T18:10:28;23.05;;;10.88;;
66979;SDS011;54048;51.468;-2.572;2023-01-28T18:12:54;21.88;;;10.25;;
66979;SDS011;54048;51.468;-2.572;2023-01-28T18:15:19;18.13;;;8.93;;
66979;SDS011;54048;51.468;-2.572;2023-01-28T18:17:45;17.65;;;9.02;;
66979;SDS011;54048;51.468;-2.572;2023-01-28T18:20:10;18.40;;;9.88;;
66979;SDS011;54048;51.468;-2.572;2023-01-28T18:22:36;17.08;;;9.07;;
66979;SDS011;54048;51.468;-2.572;2023-01-28T18:25:01;19.02;;;8.15;;
66979;SDS011;54048;51.468;-2.572;2023-01-28T18:27:26;15.88;;;6.75;;
66979;SDS011;54048;51.468;-2.572;2023-01-28T18:29:52;15.07;;;6.97;;
66979;SDS011;54048;51.468;-2.572;2023-01-28T18:32:17;17.25;;;7.68;;
66979;SDS011;54048;51.468;-2.572;2023-01-28T18:34:43;11.95;;;7.15;;
66979;SDS011;54048;51.468;-2.572;2023-01-28T18:37:08;11.88;;;6.78;;
66979;SDS011;54048;51.468;-2.572;2023-01-28T18:39:34;15.88;;;8.30;;
66979;SDS011;54048;51.468;-2.572;2023-01-28T18:41:59;15.93;;;7.78;;
66979;SDS011;54048;51.468;-2.572;2023-01-28T18:44:26;15.57;;;8.05;;
66979;SDS011;54048;51.468;-2.572;2023-01-28T18:46:52;17.55;;;8.35;;
66979;SDS011;54048;51.468;-2.572;2023-01-28T18:49:17;12.90;;;7.57;;
66979;SDS011;54048;51.468;-2.572;2023-01-28T18:51:43;18.83;;;9.55;;
66979;SDS011;54048;51.468;-2.572;2023-01-28T18:54:09;13.93;;;8.23;;
66979;SDS011;54048;51.468;-2.572;2023-01-28T18:56:36;17.85;;;8.43;;
66979;SDS011;54048;51.468;-2.572;2023-01-28T18:59:02;18.85;;;9.30;;
66979;SDS011;54048;51.468;-2.572;2023-01-28T19:01:29;15.63;;;9.07;;
66979;SDS011;54048;51.468;-2.572;2023-01-28T19:03:55;19.77;;;10.07;;
66979;SDS011;54048;51.468;-2.572;2023-01-28T19:06:21;13.55;;;7.35;;
66979;SDS011;54048;51.468;-2.572;2023-01-28T19:08:51;18.05;;;9.07;;
66979;SDS011;54048;51.468;-2.572;2023-01-28T19:11:18;16.25;;;8.70;;
66979;SDS011;54048;51.468;-2.572;2023-01-28T19:13:43;17.65;;;8.02;;
66979;SDS011;54048;51.468;-2.572;2023-01-28T19:16:09;15.70;;;8.02;;
66979;SDS011;54048;51.468;-2.572;2023-01-28T19:18:35;20.83;;;10.18;;
66979;SDS011;54048;51.468;-2.572;2023-01-28T19:21:01;26.52;;;13.68;;
66979;SDS011;54048;51.468;-2.572;2023-01-28T19:23:27;31.63;;;16.17;;
66979;SDS011;54048;51.468;-2.572;2023-01-28T19:25:53;26.33;;;13.45;;
66979;SDS011;54048;51.468;-2.572;2023-01-28T19:28:18;21.83;;;11.95;;
66979;SDS011;54048;51.468;-2.572;2023-01-28T19:30:44;23.60;;;11.63;;
66979;SDS011;54048;51.468;-2.572;2023-01-28T19:33:09;20.83;;;12.00;;
66979;SDS011;54048;51.468;-2.572;2023-01-28T19:35:35;21.52;;;11.70;;
66979;SDS011;54048;51.468;-2.572;2023-01-28T19:38:01;28.52;;;12.70;;
66979;SDS011;54048;51.468;-2.572;2023-01-28T19:40:27;25.80;;;13.80;;
66979;SDS011;54048;51.468;-2.572;2023-01-28T19:42:52;25.48;;;12.90;;
66979;SDS011;54048;51.468;-2.572;2023-01-28T19:45:18;26.13;;;11.90;;
66979;SDS011;54048;51.468;-2.572;2023-01-28T19:47:44;29.00;;;14.07;;
66979;SDS011;54048;51.468;-2.572;2023-01-28T19:50:09;28.75;;;14.75;;
66979;SDS011;54048;51.468;-2.572;2023-01-28T19:52:35;33.70;;;15.90;;
66979;SDS011;54048;51.468;-2.572;2023-01-28T19:55:01;39.30;;;17.02;;
66979;SDS011;54048;51.468;-2.572;2023-01-28T19:57:27;38.88;;;15.50;;
66979;SDS011;54048;51.468;-2.572;2023-01-28T19:59:52;33.85;;;15.85;;
66979;SDS011;54048;51.468;-2.572;2023-01-28T20:02:18;48.78;;;18.60;;
66979;SDS011;54048;51.468;-2.572;2023-01-28T20:04:43;31.25;;;15.15;;
66979;SDS011;54048;51.468;-2.572;2023-01-28T20:07:09;24.48;;;12.60;;
66979;SDS011;54048;51.468;-2.572;2023-01-28T20:09:35;29.23;;;12.93;;
66979;SDS011;54048;51.468;-2.572;2023-01-28T20:12:00;27.40;;;11.93;;
66979;SDS011;54048;51.468;-2.572;2023-01-28T20:14:25;30.90;;;11.63;;
66979;SDS011;54048;51.468;-2.572;2023-01-28T20:16:52;34.38;;;13.27;;
66979;SDS011;54048;51.468;-2.572;2023-01-28T20:19:18;20.20;;;9.77;;
66979;SDS011;54048;51.468;-2.572;2023-01-28T20:21:44;40.65;;;14.15;;
66979;SDS011;54048;51.468;-2.572;2023-01-28T20:24:11;31.50;;;11.07;;
66979;SDS011;54048;51.468;-2.572;2023-01-28T20:26:38;25.63;;;11.30;;
66979;SDS011;54048;51.468;-2.572;2023-01-28T20:29:06;24.70;;;10.52;;
66979;SDS011;54048;51.468;-2.572;2023-01-28T20:31:36;22.13;;;10.93;;
66979;SDS011;54048;51.468;-2.572;2023-01-28T20:34:02;20.92;;;10.05;;
66979;SDS011;54048;51.468;-2.572;2023-01-28T20:36:27;20.73;;;9.88;;
66979;SDS011;54048;51.468;-2.572;2023-01-28T20:38:53;21.00;;;10.73;;
66979;SDS011;54048;51.468;-2.572;2023-01-28T20:41:20;21.63;;;10.48;;
66979;SDS011;54048;51.468;-2.572;2023-01-28T20:43:46;16.65;;;10.05;;
66979;SDS011;54048;51.468;-2.572;2023-01-28T20:46:16;22.95;;;10.25;;
66979;SDS011;54048;51.468;-2.572;2023-01-28T20:48:43;19.73;;;10.82;;
66979;SDS011;54048;51.468;-2.572;2023-01-28T20:51:10;27.52;;;14.75;;
66979;SDS011;54048;51.468;-2.572;2023-01-28T20:53:38;22.50;;;12.02;;
66979;SDS011;54048;51.468;-2.572;2023-01-28T20:56:04;22.63;;;11.40;;
66979;SDS011;54048;51.468;-2.572;2023-01-28T20:58:29;20.35;;;9.95;;
66979;SDS011;54048;51.468;-2.572;2023-01-28T21:00:56;16.85;;;9.77;;
66979;SDS011;54048;51.468;-2.572;2023-01-28T21:03:21;20.55;;;10.63;;
66979;SDS011;54048;51.468;-2.572;2023-01-28T21:05:47;21.13;;;11.13;;
66979;SDS011;54048;51.468;-2.572;2023-01-28T21:08:13;22.13;;;12.38;;
66979;SDS011;54048;51.468;-2.572;2023-01-28T21:10:39;30.70;;;12.90;;
66979;SDS011;54048;51.468;-2.572;2023-01-28T21:13:06;49.15;;;23.95;;
66979;SDS011;54048;51.468;-2.572;2023-01-28T21:15:32;29.23;;;13.88;;
66979;SDS011;54048;51.468;-2.572;2023-01-28T21:17:57;24.30;;;12.63;;
66979;SDS011;54048;51.468;-2.572;2023-01-28T21:20:23;29.27;;;13.57;;
66979;SDS011;54048;51.468;-2.572;2023-01-28T21:22:49;25.35;;;12.60;;
66979;SDS011;54048;51.468;-2.572;2023-01-28T21:25:15;26.27;;;13.77;;
66979;SDS011;54048;51.468;-2.572;2023-01-28T21:27:40;21.67;;;12.75;;
66979;SDS011;54048;51.468;-2.572;2023-01-28T21:30:06;21.88;;;12.25;;
66979;SDS011;54048;51.468;-2.572;2023-01-28T21:32:32;19.70;;;11.77;;
66979;SDS011;54048;51.468;-2.572;2023-01-28T21:34:57;22.13;;;11.73;;
66979;SDS011;54048;51.468;-2.572;2023-01-28T21:37:23;20.45;;;12.07;;
66979;SDS011;54048;51.468;-2.572;2023-01-28T21:39:49;19.35;;;11.40;;
66979;SDS011;54048;51.468;-2.572;2023-01-28T21:42:14;20.33;;;11.18;;
66979;SDS011;54048;51.468;-2.572;2023-01-28T21:44:40;21.13;;;10.90;;
66979;SDS011;54048;51.468;-2.572;2023-01-28T21:47:06;25.52;;;10.73;;
66979;SDS011;54048;51.468;-2.572;2023-01-28T21:49:32;20.40;;;11.18;;
66979;SDS011;54048;51.468;-2.572;2023-01-28T21:51:57;21.75;;;11.02;;
66979;SDS011;54048;51.468;-2.572;2023-01-28T21:54:22;22.42;;;11.20;;
66979;SDS011;54048;51.468;-2.572;2023-01-28T21:56:48;24.38;;;11.35;;
66979;SDS011;54048;51.468;-2.572;2023-01-28T21:59:15;22.35;;;11.85;;
66979;SDS011;54048;51.468;-2.572;2023-01-28T22:04:33;42.67;;;23.38;;
66979;SDS011;54048;51.468;-2.572;2023-01-28T22:07:08;40.80;;;22.25;;
66979;SDS011;54048;51.468;-2.572;2023-01-28T22:09:35;43.83;;;22.95;;
66979;SDS011;54048;51.468;-2.572;2023-01-28T22:12:01;40.05;;;23.70;;
66979;SDS011;54048;51.468;-2.572;2023-01-28T22:14:27;43.60;;;24.67;;
66979;SDS011;54048;51.468;-2.572;2023-01-28T22:16:53;43.50;;;25.20;;
66979;SDS011;54048;51.468;-2.572;2023-01-28T22:19:19;45.40;;;24.42;;
66979;SDS011;54048;51.468;-2.572;2023-01-28T22:21:44;41.67;;;23.35;;
66979;SDS011;54048;51.468;-2.572;2023-01-28T22:24:14;39.28;;;23.27;;
66979;SDS011;54048;51.468;-2.572;2023-01-28T22:26:41;18.70;;;11.18;;
66979;SDS011;54048;51.468;-2.572;2023-01-28T22:29:08;9.82;;;6.10;;
66979;SDS011;54048;51.468;-2.572;2023-01-28T22:31:34;11.57;;;5.18;;
66979;SDS011;54048;51.468;-2.572;2023-01-28T22:33:59;21.13;;;10.27;;
66979;SDS011;54048;51.468;-2.572;2023-01-28T22:36:25;14.45;;;8.75;;
66979;SDS011;54048;51.468;-2.572;2023-01-28T22:38:50;13.70;;;5.97;;
66979;SDS011;54048;51.468;-2.572;2023-01-28T22:41:17;60.65;;;22.17;;
66979;SDS011;54048;51.468;-2.572;2023-01-28T22:43:44;36.10;;;23.60;;
66979;SDS011;54048;51.468;-2.572;2023-01-28T22:46:10;11.45;;;5.63;;
66979;SDS011;54048;51.468;-2.572;2023-01-28T22:48:36;13.80;;;7.20;;
66979;SDS011;54048;51.468;-2.572;2023-01-28T22:51:03;13.20;;;5.75;;
66979;SDS011;54048;51.468;-2.572;2023-01-28T22:53:30;9.95;;;5.97;;
66979;SDS011;54048;51.468;-2.572;2023-01-28T22:55:55;10.63;;;6.07;;
66979;SDS011;54048;51.468;-2.572;2023-01-28T22:58:21;11.48;;;6.65;;
66979;SDS011;54048;51.468;-2.572;2023-01-28T23:00:47;11.18;;;5.97;;
66979;SDS011;54048;51.468;-2.572;2023-01-28T23:03:12;9.35;;;5.85;;
66979;SDS011;54048;51.468;-2.572;2023-01-28T23:05:37;10.82;;;5.70;;
66979;SDS011;54048;51.468;-2.572;2023-01-28T23:08:03;11.93;;;7.20;;
66979;SDS011;54048;51.468;-2.572;2023-01-28T23:10:39;12.25;;;7.63;;
66979;SDS011;54048;51.468;-2.572;2023-01-28T23:13:15;13.95;;;7.28;;
66979;SDS011;54048;51.468;-2.572;2023-01-28T23:15:42;15.05;;;7.13;;
66979;SDS011;54048;51.468;-2.572;2023-01-28T23:18:27;13.68;;;7.25;;
66979;SDS011;54048;51.468;-2.572;2023-01-28T23:21:17;12.98;;;7.43;;
66979;SDS011;54048;51.468;-2.572;2023-01-28T23:24:02;14.63;;;7.85;;
66979;SDS011;54048;51.468;-2.572;2023-01-28T23:26:49;11.98;;;7.32;;
66979;SDS011;54048;51.468;-2.572;2023-01-28T23:29:17;11.23;;;7.22;;
66979;SDS011;54048;51.468;-2.572;2023-01-28T23:31:43;12.35;;;6.55;;
66979;SDS011;54048;51.468;-2.572;2023-01-28T23:34:11;11.20;;;7.15;;
66979;SDS011;54048;51.468;-2.572;2023-01-28T23:36:39;12.57;;;6.35;;
66979;SDS011;54048;51.468;-2.572;2023-01-28T23:39:04;9.98;;;6.40;;
66979;SDS011;54048;51.468;-2.572;2023-01-28T23:41:30;10.57;;;6.90;;
66979;SDS011;54048;51.468;-2.572;2023-01-28T23:43:55;12.77;;;6.65;;
66979;SDS011;54048;51.468;-2.572;2023-01-28T23:46:20;15.90;;;6.78;;
66979;SDS011;54048;51.468;-2.572;2023-01-28T23:48:46;10.60;;;5.53;;
66979;SDS011;54048;51.468;-2.572;2023-01-28T23:51:12;11.82;;;6.50;;
66979;SDS011;54048;51.468;-2.572;2023-01-28T23:53:37;12.32;;;6.38;;
66979;SDS011;54048;51.468;-2.572;2023-01-28T23:56:06;13.13;;;5.88;;
66979;SDS011;54048;51.468;-2.572;2023-01-28T23:58:32;12.52;;;7.50;;
